createdAt,value
2023-01-21T00:00:10.648Z,-1.24
2023-01-21T00:02:37.391Z,-1.19
2023-01-21T00:05:04.477Z,-1.12
2023-01-21T00:07:31.106Z,-1.19
2023-01-21T00:09:57.939Z,-1.17
2023-01-21T00:12:24.565Z,-1.12
2023-01-21T00:14:51.164Z,-1.22
2023-01-21T00:17:17.806Z,-1.08
2023-01-21T00:19:44.433Z,-1.13
2023-01-21T00:22:11.034Z,-1.10
2023-01-21T00:24:37.763Z,-1.18
2023-01-21T00:27:04.499Z,-1.17
2023-01-21T00:29:31.137Z,-1.11
2023-01-21T00:31:57.863Z,-1.14
2023-01-21T00:34:24.526Z,-1.17
2023-01-21T00:36:51.146Z,-1.13
2023-01-21T00:39:17.777Z,-1.15
2023-01-21T00:41:44.392Z,-1.17
2023-01-21T00:44:11.034Z,-1.16
2023-01-21T00:46:37.683Z,-1.18
2023-01-21T00:49:04.454Z,-1.20
2023-01-21T00:51:31.107Z,-1.27
2023-01-21T00:53:57.942Z,-1.25
2023-01-21T00:56:24.642Z,-1.26
2023-01-21T00:58:51.530Z,-1.18
2023-01-21T01:01:20.800Z,-1.09
2023-01-21T01:03:48.948Z,-1.12
2023-01-21T01:06:19.031Z,-1.21
2023-01-21T01:08:45.945Z,-1.27
2023-01-21T01:11:14.012Z,-1.24
2023-01-21T01:13:41.337Z,-1.16
2023-01-21T01:16:09.252Z,-1.12
2023-01-21T01:18:37.409Z,-1.15
2023-01-21T01:21:05.405Z,-1.14
2023-01-21T01:23:32.798Z,-1.18
2023-01-21T01:26:04.553Z,-1.17
2023-01-21T01:28:32.282Z,-1.21
2023-01-21T01:30:59.680Z,-1.11
2023-01-21T01:33:27.124Z,-1.05
2023-01-21T01:35:54.027Z,-1.04
2023-01-21T01:38:22.435Z,-1.09
2023-01-21T01:40:51.141Z,-1.08
2023-01-21T01:43:49.240Z,-1.06
2023-01-21T01:46:15.933Z,-1.03
2023-01-21T01:48:47.060Z,-1.13
2023-01-21T01:51:17.782Z,-1.12
2023-01-21T01:53:47.261Z,-1.28
2023-01-21T01:56:15.881Z,-1.27
2023-01-21T01:58:43.970Z,-1.28
2023-01-21T02:01:10.795Z,-1.27
2023-01-21T02:03:46.208Z,-1.21
2023-01-21T02:06:14.570Z,-1.18
2023-01-21T02:08:42.615Z,-1.23
2023-01-21T02:11:14.157Z,-1.24
2023-01-21T02:13:43.636Z,-1.30
2023-01-21T02:16:52.185Z,-1.32
2023-01-21T02:19:46.318Z,-1.31
2023-01-21T02:22:51.869Z,-1.15
2023-01-21T02:26:03.551Z,-1.23
2023-01-21T02:29:12.928Z,-1.25
2023-01-21T02:32:30.467Z,-1.28
2023-01-21T02:35:55.044Z,-1.23
2023-01-21T02:38:38.955Z,-1.29
2023-01-21T02:41:32.191Z,-1.30
2023-01-21T02:44:16.544Z,-1.29
2023-01-21T02:46:53.528Z,-1.26
2023-01-21T02:49:34.775Z,-1.27
2023-01-21T02:52:01.487Z,-1.19
2023-01-21T02:54:50.837Z,-1.17
2023-01-21T02:57:34.127Z,-1.15
2023-01-21T03:00:05.751Z,-1.05
2023-01-21T03:03:08.313Z,-1.08
2023-01-21T03:06:02.375Z,-1.12
2023-01-21T03:08:59.058Z,-1.11
2023-01-21T03:11:26.197Z,-1.28
2023-01-21T03:14:25.775Z,-1.29
2023-01-21T03:17:00.827Z,-1.17
2023-01-21T03:19:45.246Z,-1.19
2023-01-21T03:22:17.318Z,-1.28
2023-01-21T03:24:48.273Z,-1.26
2023-01-21T03:27:18.300Z,-1.22
2023-01-21T03:29:46.979Z,-1.23
2023-01-21T03:32:16.589Z,-1.26
2023-01-21T03:34:49.239Z,-1.51
2023-01-21T03:37:28.025Z,-1.43
2023-01-21T03:40:24.742Z,-1.37
2023-01-21T03:42:52.695Z,-1.29
2023-01-21T03:45:42.870Z,-1.39
2023-01-21T03:48:19.710Z,-1.27
2023-01-21T03:50:54.320Z,-1.32
2023-01-21T03:53:21.120Z,-1.36
2023-01-21T03:55:50.452Z,-1.36
2023-01-21T03:58:17.181Z,-1.31
2023-01-21T04:00:45.069Z,-1.27
2023-01-21T04:03:11.704Z,-1.19
2023-01-21T04:05:38.366Z,-1.17
2023-01-21T04:08:05.067Z,-1.09
2023-01-21T04:10:32.002Z,-1.15
2023-01-21T04:12:58.716Z,-1.12
2023-01-21T04:15:25.434Z,-1.08
2023-01-21T04:17:52.069Z,-1.17
2023-01-21T04:20:19.604Z,-1.12
2023-01-21T04:22:46.240Z,-1.14
2023-01-21T04:25:12.886Z,-1.17
2023-01-21T04:27:39.559Z,-1.15
2023-01-21T04:30:07.292Z,-1.17
2023-01-21T04:32:33.932Z,-1.16
2023-01-21T04:35:00.583Z,-1.14
2023-01-21T04:37:27.215Z,-1.31
2023-01-21T04:39:53.869Z,-1.15
2023-01-21T04:42:20.447Z,-1.17
2023-01-21T04:44:47.683Z,-1.19
2023-01-21T04:47:14.311Z,-1.13
2023-01-21T04:49:40.944Z,-1.11
2023-01-21T04:52:07.644Z,-1.17
2023-01-21T04:54:34.468Z,-1.18
2023-01-21T04:57:01.082Z,-1.28
2023-01-21T04:59:27.735Z,-1.34
2023-01-21T05:01:54.363Z,-1.43
2023-01-21T05:04:21.007Z,-1.28
2023-01-21T05:06:47.669Z,-1.27
2023-01-21T05:09:14.304Z,-1.32
2023-01-21T05:11:41.116Z,-1.25
2023-01-21T05:14:07.755Z,-1.21
2023-01-21T05:16:34.378Z,-1.18
2023-01-21T05:19:01.059Z,-1.22
2023-01-21T05:21:27.709Z,-1.31
2023-01-21T05:23:54.545Z,-1.32
2023-01-21T05:26:21.246Z,-1.36
2023-01-21T05:28:50.626Z,-1.37
2023-01-21T05:31:17.306Z,-1.51
2023-01-21T05:33:46.036Z,-1.40
2023-01-21T05:36:13.107Z,-1.57
2023-01-21T05:38:39.989Z,-1.63
2023-01-21T05:41:06.619Z,-1.57
2023-01-21T05:43:33.613Z,-1.62
2023-01-21T05:46:00.387Z,-1.68
2023-01-21T05:48:29.159Z,-1.62
2023-01-21T05:50:58.193Z,-1.79
2023-01-21T05:53:25.416Z,-1.64
2023-01-21T05:55:56.579Z,-1.63
2023-01-21T05:58:24.286Z,-1.58
2023-01-21T06:00:51.149Z,-1.58
2023-01-21T06:03:19.143Z,-1.51
2023-01-21T06:05:46.897Z,-1.52
2023-01-21T06:08:13.596Z,-1.49
2023-01-21T06:10:40.640Z,-1.46
2023-01-21T06:13:07.386Z,-1.45
2023-01-21T06:15:34.035Z,-1.62
2023-01-21T06:18:01.285Z,-1.50
2023-01-21T06:20:31.513Z,-1.51
2023-01-21T06:22:59.218Z,-1.57
2023-01-21T06:25:26.269Z,-1.44
2023-01-21T06:27:56.055Z,-1.52
2023-01-21T06:30:23.569Z,-1.51
2023-01-21T06:32:50.385Z,-1.38
2023-01-21T06:35:17.411Z,-1.53
2023-01-21T06:37:45.785Z,-1.49
2023-01-21T06:40:14.274Z,-1.44
2023-01-21T06:42:41.131Z,-1.49
2023-01-21T06:45:09.048Z,-1.43
2023-01-21T06:47:35.689Z,-1.39
2023-01-21T06:50:02.413Z,-1.48
2023-01-21T06:52:29.041Z,-1.45
2023-01-21T06:54:55.725Z,-1.54
2023-01-21T06:57:22.379Z,-1.53
2023-01-21T06:59:49.001Z,-1.45
2023-01-21T07:02:15.684Z,-1.46
2023-01-21T07:04:42.435Z,-1.47
2023-01-21T07:07:09.096Z,-1.45
2023-01-21T07:09:35.722Z,-1.51
2023-01-21T07:12:02.352Z,-1.57
2023-01-21T07:14:28.994Z,-1.47
2023-01-21T07:16:55.694Z,-1.51
2023-01-21T07:19:22.385Z,-1.44
2023-01-21T07:21:49.089Z,-1.47
2023-01-21T07:24:15.849Z,-1.50
2023-01-21T07:26:43.252Z,-1.57
2023-01-21T07:29:10.135Z,-1.56
2023-01-21T07:31:37.142Z,-1.52
2023-01-21T07:34:04.065Z,-1.40
2023-01-21T07:36:30.893Z,-1.50
2023-01-21T07:38:57.534Z,-1.53
2023-01-21T07:41:24.381Z,-1.48
2023-01-21T07:43:51.754Z,-1.40
2023-01-21T07:46:22.816Z,-1.41
2023-01-21T07:48:51.722Z,-1.40
2023-01-21T07:51:21.416Z,-1.42
2023-01-21T07:53:48.187Z,-1.59
2023-01-21T07:56:15.072Z,-1.54
2023-01-21T07:58:41.768Z,-1.55
2023-01-21T08:01:09.767Z,-1.55
2023-01-21T08:03:37.626Z,-1.47
2023-01-21T08:06:07.358Z,-1.53
2023-01-21T08:08:34.668Z,-1.71
2023-01-21T08:11:01.398Z,-1.66
2023-01-21T08:13:27.995Z,-1.74
2023-01-21T08:15:56.495Z,-1.64
2023-01-21T08:18:24.347Z,-1.57
2023-01-21T08:20:56.239Z,-1.68
2023-01-21T08:23:23.257Z,-1.60
2023-01-21T08:25:50.143Z,-1.55
2023-01-21T08:28:16.864Z,-1.43
2023-01-21T08:30:43.641Z,-1.57
2023-01-21T08:33:10.536Z,-1.51
2023-01-21T08:35:37.181Z,-1.50
2023-01-21T08:38:03.806Z,-1.56
2023-01-21T08:40:30.452Z,-1.56
2023-01-21T08:43:01.267Z,-1.65
2023-01-21T08:45:28.905Z,-1.46
2023-01-21T08:47:55.915Z,-1.44
2023-01-21T08:50:23.363Z,-1.47
2023-01-21T08:52:56.314Z,-1.52
2023-01-21T08:55:26.762Z,-1.46
2023-01-21T08:57:58.412Z,-1.50
2023-01-21T09:00:25.318Z,-1.43
2023-01-21T09:02:52.151Z,-1.33
2023-01-21T09:05:19.518Z,-1.42
2023-01-21T09:07:46.826Z,-1.43
2023-01-21T09:10:33.984Z,-1.41
2023-01-21T09:13:08.025Z,-1.39
2023-01-21T09:15:53.420Z,-1.45
2023-01-21T09:18:20.065Z,-1.47
2023-01-21T09:20:46.690Z,-1.36
2023-01-21T09:23:25.785Z,-1.59
2023-01-21T09:26:19.566Z,-1.41
2023-01-21T09:28:51.324Z,-1.43
2023-01-21T09:31:21.486Z,-1.26
2023-01-21T09:33:53.332Z,-1.23
2023-01-21T09:36:22.708Z,-1.34
2023-01-21T09:38:50.415Z,-1.44
2023-01-21T09:41:56.593Z,-1.19
2023-01-21T09:44:23.214Z,-1.15
2023-01-21T09:47:33.398Z,-1.26
2023-01-21T09:50:22.071Z,-1.17
2023-01-21T09:52:54.046Z,-1.09
2023-01-21T09:55:28.386Z,-0.90
2023-01-21T09:58:32.797Z,-1.00
2023-01-21T10:01:11.838Z,-1.09
2023-01-21T10:04:00.263Z,-0.77
2023-01-21T10:06:59.627Z,-0.95
2023-01-21T10:09:49.890Z,-1.04
2023-01-21T10:13:05.668Z,-0.92
2023-01-21T10:16:12.738Z,-1.13
2023-01-21T10:18:44.162Z,-1.08
2023-01-21T10:21:37.697Z,-1.32
2023-01-21T10:24:14.933Z,-1.04
2023-01-21T10:26:44.739Z,-0.92
2023-01-21T10:29:18.532Z,-1.04
2023-01-21T10:32:04.035Z,-1.12
2023-01-21T10:34:32.415Z,-0.87
2023-01-21T10:37:48.400Z,-0.84
2023-01-21T10:40:42.364Z,-0.74
2023-01-21T10:43:17.889Z,-0.68
2023-01-21T10:45:59.133Z,-0.78
2023-01-21T10:48:44.559Z,-0.72
2023-01-21T10:51:22.162Z,-0.82
2023-01-21T10:54:50.651Z,-0.90
2023-01-21T10:57:34.788Z,-0.83
2023-01-21T11:00:03.917Z,-1.06
2023-01-21T11:02:32.955Z,-1.03
2023-01-21T11:05:06.262Z,-0.73
2023-01-21T11:07:42.266Z,-0.69
2023-01-21T11:10:13.128Z,-0.62
2023-01-21T11:12:39.832Z,-0.54
2023-01-21T11:15:20.642Z,-0.81
2023-01-21T11:17:50.615Z,-0.69
2023-01-21T11:20:25.497Z,-0.65
2023-01-21T11:22:52.221Z,-0.47
2023-01-21T11:25:46.305Z,-0.48
2023-01-21T11:28:42.217Z,-0.55
2023-01-21T11:31:27.020Z,-0.70
2023-01-21T11:33:55.502Z,-0.64
2023-01-21T11:36:22.148Z,-0.59
2023-01-21T11:39:01.188Z,-0.55
2023-01-21T11:41:28.108Z,-0.55
2023-01-21T11:44:07.102Z,-0.73
2023-01-21T11:46:40.972Z,-0.68
2023-01-21T11:49:32.805Z,-0.66
2023-01-21T11:52:17.279Z,-0.59
2023-01-21T11:54:44.946Z,-0.62
2023-01-21T11:57:25.796Z,-0.60
2023-01-21T11:59:56.781Z,-0.49
2023-01-21T12:02:31.386Z,-0.63
2023-01-21T12:05:14.548Z,-0.68
2023-01-21T12:07:42.941Z,-0.58
2023-01-21T12:10:26.232Z,-0.48
2023-01-21T12:13:06.685Z,-0.33
2023-01-21T12:16:28.847Z,-0.33
2023-01-21T12:19:36.861Z,-0.34
2023-01-21T12:22:38.446Z,-0.32
2023-01-21T12:25:26.948Z,-0.35
2023-01-21T12:28:35.780Z,-0.58
2023-01-21T12:31:29.437Z,-0.74
2023-01-21T12:34:29.200Z,-0.76
2023-01-21T12:37:04.979Z,-0.73
2023-01-21T12:39:36.412Z,-0.72
2023-01-21T12:42:40.902Z,-0.89
2023-01-21T12:45:21.208Z,-0.92
2023-01-21T12:48:03.213Z,-0.93
2023-01-21T12:50:41.309Z,-0.81
2023-01-21T12:53:46.461Z,-0.85
2023-01-21T12:57:00.119Z,-1.05
2023-01-21T12:59:43.449Z,-1.01
2023-01-21T13:02:34.373Z,-0.98
2023-01-21T13:05:21.722Z,-1.14
2023-01-21T13:08:12.183Z,-1.15
2023-01-21T13:10:50.574Z,-1.13
2023-01-21T13:13:34.968Z,-1.18
2023-01-21T13:16:07.801Z,-1.11
2023-01-21T13:18:39.581Z,-1.25
2023-01-21T13:21:20.287Z,-1.12
2023-01-21T13:24:17.879Z,-1.10
2023-01-21T13:27:22.430Z,-1.06
2023-01-21T13:30:30.425Z,-1.11
2023-01-21T13:33:18.339Z,-1.03
2023-01-21T13:36:13.952Z,-1.04
2023-01-21T13:39:10.041Z,-1.00
2023-01-21T13:42:12.077Z,-0.91
2023-01-21T13:45:00.209Z,-1.01
2023-01-21T13:48:18.141Z,-0.95
2023-01-21T13:51:15.222Z,-1.01
2023-01-21T13:54:21.056Z,-1.03
2023-01-21T13:57:26.790Z,-1.09
2023-01-21T14:00:41.559Z,-1.22
2023-01-21T14:06:29.867Z,-1.17
2023-01-21T14:09:14.721Z,-1.21
2023-01-21T14:11:48.189Z,-1.07
2023-01-21T14:14:57.946Z,-1.02
2023-01-21T14:31:10.368Z,-1.10
2023-01-21T14:33:46.828Z,-1.12
2023-01-21T14:36:40.723Z,-1.23
2023-01-21T14:39:38.025Z,-1.28
2023-01-21T14:42:17.640Z,-1.16
2023-01-21T14:45:12.794Z,-1.19
2023-01-21T14:47:45.394Z,-1.32
2023-01-21T14:50:31.937Z,-1.29
2023-01-21T14:52:58.654Z,-1.38
2023-01-21T14:55:30.509Z,-1.39
2023-01-21T14:58:00.759Z,-1.39
2023-01-21T15:00:33.478Z,-1.27
2023-01-21T15:03:27.203Z,-1.33
2023-01-21T15:05:56.790Z,-1.31
2023-01-21T15:08:30.740Z,-1.21
2023-01-21T15:11:06.401Z,-1.19
2023-01-21T15:13:32.973Z,-1.26
2023-01-21T15:16:32.799Z,-1.35
2023-01-21T15:19:29.969Z,-1.41
2023-01-21T15:22:16.894Z,-1.40
2023-01-21T15:25:21.803Z,-1.31
2023-01-21T15:28:27.323Z,-1.37
2023-01-21T15:31:03.798Z,-1.33
2023-01-21T15:33:32.640Z,-1.31
2023-01-21T15:36:00.439Z,-1.26
2023-01-21T15:38:28.184Z,-1.25
2023-01-21T15:41:09.740Z,-1.23
2023-01-21T15:43:54.894Z,-1.33
2023-01-21T15:46:41.177Z,-1.26
2023-01-21T15:49:37.362Z,-1.29
2023-01-21T15:52:44.062Z,-1.28
2023-01-21T15:56:03.258Z,-1.28
2023-01-21T15:58:59.279Z,-1.34
2023-01-21T16:01:39.427Z,-1.36
2023-01-21T16:04:44.965Z,-1.38
2023-01-21T16:07:52.625Z,-1.46
2023-01-21T16:10:39.052Z,-1.31
2023-01-21T16:13:26.865Z,-1.36
2023-01-21T16:16:18.758Z,-1.32
2023-01-21T16:19:09.044Z,-1.39
2023-01-21T16:21:40.136Z,-1.47
2023-01-21T16:24:21.072Z,-1.39
2023-01-21T16:26:47.673Z,-1.36
2023-01-21T16:29:15.177Z,-1.18
2023-01-21T16:31:52.250Z,-1.23
2023-01-21T16:34:51.021Z,-1.25
2023-01-21T16:37:20.215Z,-1.08
2023-01-21T16:39:47.141Z,-1.19
2023-01-21T16:42:33.778Z,-1.19
2023-01-21T16:45:00.682Z,-1.28
2023-01-21T16:47:36.959Z,-1.31
2023-01-21T16:50:05.581Z,-1.37
2023-01-21T16:52:32.497Z,-1.38
2023-01-21T16:54:59.147Z,-1.33
2023-01-21T16:57:31.534Z,-1.26
2023-01-21T16:59:58.754Z,-1.32
2023-01-21T17:02:33.050Z,-1.26
2023-01-21T17:05:04.559Z,-1.16
2023-01-21T17:07:41.359Z,-1.22
2023-01-21T17:10:46.826Z,-1.31
2023-01-21T17:13:16.255Z,-1.39
2023-01-21T17:15:58.253Z,-1.46
2023-01-21T17:18:30.040Z,-1.34
2023-01-21T17:21:09.766Z,-1.35
2023-01-21T17:23:44.730Z,-1.34
2023-01-21T17:26:25.218Z,-1.30
2023-01-21T17:28:57.751Z,-1.28
2023-01-21T17:31:35.370Z,-1.45
2023-01-21T17:34:32.782Z,-1.47
2023-01-21T17:36:59.943Z,-1.45
2023-01-21T17:40:06.364Z,-1.30
2023-01-21T17:42:39.928Z,-1.19
2023-01-21T17:45:07.259Z,-1.15
2023-01-21T17:47:54.498Z,-1.26
2023-01-21T17:50:32.631Z,-1.32
2023-01-21T17:53:03.443Z,-1.27
2023-01-21T17:55:40.330Z,-1.26
2023-01-21T17:58:36.139Z,-1.37
2023-01-21T18:01:04.199Z,-1.34
2023-01-21T18:03:30.881Z,-1.31
2023-01-21T18:05:58.018Z,-1.28
2023-01-21T18:08:24.751Z,-1.28
2023-01-21T18:10:51.597Z,-1.34
2023-01-21T18:13:19.993Z,-1.32
2023-01-21T18:15:51.333Z,-1.34
2023-01-21T18:18:20.759Z,-1.32
2023-01-21T18:20:47.836Z,-1.33
2023-01-21T18:23:15.252Z,-1.39
2023-01-21T18:25:42.708Z,-1.43
2023-01-21T18:28:24.661Z,-1.47
2023-01-21T18:30:53.416Z,-1.40
2023-01-21T18:33:20.317Z,-1.38
2023-01-21T18:35:48.959Z,-1.46
2023-01-21T18:38:27.711Z,-1.59
2023-01-21T18:40:55.442Z,-1.60
2023-01-21T18:43:22.874Z,-1.53
2023-01-21T18:45:49.582Z,-1.45
2023-01-21T18:48:18.267Z,-1.43
2023-01-21T18:50:45.059Z,-1.40
2023-01-21T18:53:13.195Z,-1.43
2023-01-21T18:55:43.900Z,-1.49
2023-01-21T18:58:14.713Z,-1.40
2023-01-21T19:00:41.786Z,-1.37
2023-01-21T19:03:12.198Z,-1.44
2023-01-21T19:05:40.771Z,-1.42
2023-01-21T19:08:21.711Z,-1.43
2023-01-21T19:10:48.350Z,-1.36
2023-01-21T19:13:15.055Z,-1.41
2023-01-21T19:15:42.199Z,-1.38
2023-01-21T19:18:13.536Z,-1.33
2023-01-21T19:20:41.549Z,-1.34
2023-01-21T19:23:17.935Z,-1.35
2023-01-21T19:25:53.280Z,-1.34
2023-01-21T19:28:21.305Z,-1.31
2023-01-21T19:30:49.819Z,-1.24
2023-01-21T19:33:16.563Z,-1.18
2023-01-21T19:35:45.032Z,-1.19
2023-01-21T19:38:19.294Z,-1.22
2023-01-21T19:40:46.737Z,-1.28
2023-01-21T19:43:18.024Z,-1.29
2023-01-21T19:45:45.317Z,-1.29
2023-01-21T19:48:14.047Z,-1.32
2023-01-21T19:50:40.954Z,-1.28
2023-01-21T19:53:09.200Z,-1.22
2023-01-21T19:55:37.319Z,-1.17
2023-01-21T19:58:10.988Z,-1.27
2023-01-21T20:00:37.609Z,-1.16
2023-01-21T20:03:04.551Z,-1.16
2023-01-21T20:05:35.393Z,-1.12
2023-01-21T20:08:02.748Z,-1.13
2023-01-21T20:10:30.424Z,-1.16
2023-01-21T20:12:57.773Z,-1.10
2023-01-21T20:15:30.326Z,-1.16
2023-01-21T20:17:59.140Z,-1.08
2023-01-21T20:20:35.953Z,-1.05
2023-01-21T20:23:02.678Z,-1.11
2023-01-21T20:25:36.493Z,-1.12
2023-01-21T20:28:20.432Z,-1.14
2023-01-21T20:30:48.464Z,-1.23
2023-01-21T20:33:17.599Z,-1.18
2023-01-21T20:35:54.047Z,-1.15
2023-01-21T20:38:37.605Z,-1.16
2023-01-21T20:41:05.384Z,-1.06
2023-01-21T20:43:32.156Z,-1.17
2023-01-21T20:46:01.801Z,-1.12
2023-01-21T20:48:33.050Z,-1.12
2023-01-21T20:51:00.285Z,-1.12
2023-01-21T20:53:27.805Z,-1.11
2023-01-21T20:55:55.726Z,-1.09
2023-01-21T20:58:22.666Z,-1.12
2023-01-21T21:00:49.975Z,-1.23
2023-01-21T21:03:18.234Z,-1.24
2023-01-21T21:05:46.720Z,-1.21
2023-01-21T21:08:21.092Z,-1.06
2023-01-21T21:10:48.287Z,-1.12
2023-01-21T21:13:14.950Z,-1.13
2023-01-21T21:15:45.031Z,-1.15
2023-01-21T21:18:14.310Z,-1.10
2023-01-21T21:20:41.677Z,-1.08
2023-01-21T21:23:16.910Z,-0.99
2023-01-21T21:25:47.779Z,-1.04
2023-01-21T21:28:16.948Z,-1.06
2023-01-21T21:30:44.308Z,-0.93
2023-01-21T21:33:18.229Z,-0.99
2023-01-21T21:35:46.725Z,-1.03
2023-01-21T21:38:18.387Z,-1.09
2023-01-21T21:40:46.469Z,-1.06
2023-01-21T21:43:35.735Z,-1.03
2023-01-21T21:46:28.022Z,-1.02
2023-01-21T21:48:54.679Z,-1.04
2023-01-21T21:51:24.584Z,-0.93
2023-01-21T21:53:51.386Z,-0.94
2023-01-21T21:56:22.962Z,-0.92
2023-01-21T21:58:51.074Z,-0.93
2023-01-21T22:01:23.586Z,-0.93
2023-01-21T22:03:50.301Z,-0.94
2023-01-21T22:06:19.053Z,-0.94
2023-01-21T22:08:45.959Z,-0.95
2023-01-21T22:11:18.354Z,-1.00
2023-01-21T22:13:50.087Z,-1.02
2023-01-21T22:16:28.855Z,-1.04
2023-01-21T22:18:57.422Z,-1.02
2023-01-21T22:21:27.340Z,-0.97
2023-01-21T22:23:54.681Z,-0.94
2023-01-21T22:26:24.336Z,-0.99
2023-01-21T22:28:51.415Z,-0.94
2023-01-21T22:31:21.160Z,-0.92
2023-01-21T22:33:48.108Z,-0.99
2023-01-21T22:36:20.815Z,-0.93
2023-01-21T22:38:47.861Z,-1.01
2023-01-21T22:41:16.771Z,-0.93
2023-01-21T22:43:48.485Z,-0.93
2023-01-21T22:46:18.212Z,-0.97
2023-01-21T22:48:46.176Z,-0.93
2023-01-21T22:51:15.585Z,-0.94
2023-01-21T22:53:43.953Z,-0.93
2023-01-21T22:56:12.726Z,-0.95
2023-01-21T22:58:39.392Z,-0.97
2023-01-21T23:01:07.541Z,-0.90
2023-01-21T23:03:34.550Z,-1.01
2023-01-21T23:06:06.231Z,-0.98
2023-01-21T23:08:33.212Z,-0.97
2023-01-21T23:11:04.685Z,-0.94
2023-01-21T23:13:32.265Z,-1.00
2023-01-21T23:15:59.499Z,-1.08
2023-01-21T23:18:28.093Z,-1.25
2023-01-21T23:20:55.706Z,-1.21
2023-01-21T23:23:22.687Z,-1.28
2023-01-21T23:25:49.593Z,-1.36
2023-01-21T23:28:16.294Z,-1.33
2023-01-21T23:30:43.068Z,-1.36
2023-01-21T23:33:11.666Z,-1.43
2023-01-21T23:35:38.277Z,-1.46
2023-01-21T23:38:05.024Z,-1.46
2023-01-21T23:40:31.700Z,-1.41
2023-01-21T23:42:58.365Z,-1.33
2023-01-21T23:45:25.012Z,-1.44
2023-01-21T23:47:51.613Z,-1.48
2023-01-21T23:50:18.616Z,-1.42
2023-01-21T23:52:45.380Z,-1.38
2023-01-21T23:55:12.088Z,-1.49
2023-01-21T23:57:38.758Z,-1.47
